createdAt,value
2019-03-21T00:01:17.145Z,40.63
2019-03-21T00:03:51.464Z,40.87
2019-03-21T00:06:23.816Z,50.57
2019-03-21T00:08:56.072Z,49.53
2019-03-21T00:11:56.829Z,46.80
2019-03-21T00:14:41.201Z,44.20
2019-03-21T00:17:14.280Z,44.47
2019-03-21T00:19:46.637Z,44.50
2019-03-21T00:22:18.909Z,54.80
2019-03-21T00:24:51.160Z,43.00
2019-03-21T00:27:23.600Z,51.03
2019-03-21T00:29:55.860Z,53.33
2019-03-21T00:32:28.114Z,42.83
2019-03-21T00:35:00.376Z,45.20
2019-03-21T00:37:32.660Z,40.90
2019-03-21T00:40:07.274Z,41.10
2019-03-21T00:42:39.522Z,44.27
2019-03-21T00:45:13.353Z,45.50
2019-03-21T00:47:45.721Z,52.77
2019-03-21T00:50:19.524Z,45.37
2019-03-21T00:52:52.592Z,43.17
2019-03-21T00:55:25.608Z,44.70
2019-03-21T00:57:58.825Z,42.53
2019-03-21T01:00:34.753Z,47.63
2019-03-21T01:03:07.830Z,46.43
2019-03-21T01:05:40.174Z,46.20
2019-03-21T01:08:12.511Z,41.97
2019-03-21T01:10:44.897Z,44.90
2019-03-21T01:13:17.156Z,39.93
2019-03-21T01:15:49.404Z,47.30
2019-03-21T01:18:21.653Z,46.73
2019-03-21T01:20:53.900Z,43.93
2019-03-21T01:23:26.280Z,44.60
2019-03-21T01:25:59.389Z,49.00
2019-03-21T01:28:31.635Z,48.33
2019-03-21T01:31:03.997Z,40.50
2019-03-21T01:33:36.276Z,40.73
2019-03-21T01:36:08.541Z,44.80
2019-03-21T01:38:40.788Z,53.83
2019-03-21T01:41:13.047Z,50.10
2019-03-21T01:43:45.309Z,47.43
2019-03-21T01:46:17.688Z,47.27
2019-03-21T01:48:49.932Z,50.80
2019-03-21T01:51:22.297Z,48.30
2019-03-21T01:53:54.567Z,54.80
2019-03-21T01:56:27.869Z,55.93
2019-03-21T01:59:00.126Z,47.37
2019-03-21T02:01:32.560Z,47.70
2019-03-21T02:04:04.788Z,48.47
2019-03-21T02:06:37.089Z,47.83
2019-03-21T02:09:09.530Z,50.10
2019-03-21T02:11:41.876Z,43.87
2019-03-21T02:14:14.126Z,46.27
2019-03-21T02:16:46.402Z,51.70
2019-03-21T02:19:18.644Z,52.20
2019-03-21T02:21:50.900Z,50.30
2019-03-21T02:24:23.165Z,45.93
2019-03-21T02:26:55.420Z,43.83
2019-03-21T02:29:27.672Z,48.57
2019-03-21T02:31:59.954Z,47.53
2019-03-21T02:34:32.300Z,38.57
2019-03-21T02:37:04.543Z,49.93
2019-03-21T02:39:37.067Z,44.83
2019-03-21T02:42:09.528Z,42.90
2019-03-21T02:44:41.900Z,47.40
2019-03-21T02:47:14.238Z,35.17
2019-03-21T02:49:46.587Z,44.30
2019-03-21T02:52:18.844Z,42.83
2019-03-21T02:54:51.111Z,39.73
2019-03-21T02:57:23.368Z,38.90
2019-03-21T02:59:55.625Z,41.93
2019-03-21T03:02:27.873Z,37.47
2019-03-21T03:05:00.348Z,49.40
2019-03-21T03:07:33.532Z,50.17
2019-03-21T03:10:08.701Z,40.93
2019-03-21T03:12:41.062Z,32.47
2019-03-21T03:15:22.643Z,45.67
2019-03-21T03:17:49.223Z,37.03
2019-03-21T03:20:21.456Z,38.63
2019-03-21T03:22:53.704Z,37.07
2019-03-21T03:25:26.077Z,37.50
2019-03-21T03:28:01.637Z,49.67
2019-03-21T03:30:33.982Z,43.83
2019-03-21T03:33:06.960Z,38.33
2019-03-21T03:35:39.292Z,37.77
2019-03-21T03:38:11.567Z,39.43
2019-03-21T03:40:46.156Z,41.03
2019-03-21T03:43:18.535Z,42.80
2019-03-21T03:45:50.789Z,42.67
2019-03-21T03:48:23.180Z,43.60
2019-03-21T03:50:55.429Z,51.70
2019-03-21T03:53:27.797Z,52.00
2019-03-21T03:56:00.228Z,50.00
2019-03-21T03:58:32.898Z,44.90
2019-03-21T04:01:05.148Z,51.30
2019-03-21T04:03:37.522Z,51.57
2019-03-21T04:06:09.973Z,48.37
2019-03-21T04:08:42.445Z,50.90
2019-03-21T04:11:15.009Z,49.17
2019-03-21T04:13:47.290Z,53.53
2019-03-21T04:16:19.543Z,48.67
2019-03-21T04:18:51.806Z,51.37
2019-03-21T04:21:24.035Z,57.10
2019-03-21T04:23:59.544Z,65.90
2019-03-21T04:26:30.639Z,50.47
2019-03-21T04:29:03.091Z,55.90
2019-03-21T04:31:35.353Z,60.37
2019-03-21T04:34:08.230Z,60.50
2019-03-21T04:36:40.582Z,54.83
2019-03-21T04:39:12.893Z,54.27
2019-03-21T04:41:45.151Z,54.97
2019-03-21T04:44:17.431Z,56.93
2019-03-21T04:46:49.796Z,55.57
2019-03-21T04:49:22.143Z,64.30
2019-03-21T04:51:54.424Z,57.57
2019-03-21T04:54:26.695Z,60.27
2019-03-21T04:56:59.025Z,63.70
2019-03-21T04:59:31.291Z,61.30
2019-03-21T05:02:03.643Z,55.80
2019-03-21T05:04:36.089Z,48.70
2019-03-21T05:07:08.428Z,58.47
2019-03-21T05:09:40.694Z,59.23
2019-03-21T05:12:12.916Z,46.63
2019-03-21T05:14:45.215Z,52.80
2019-03-21T05:17:17.466Z,60.53
2019-03-21T05:19:49.708Z,54.70
2019-03-21T05:22:22.062Z,55.43
2019-03-21T05:24:54.380Z,53.10
2019-03-21T05:27:26.699Z,60.23
2019-03-21T05:29:59.037Z,64.20
2019-03-21T05:32:31.295Z,57.57
2019-03-21T05:35:04.040Z,66.67
2019-03-21T05:37:36.374Z,54.77
2019-03-21T05:40:10.758Z,56.43
2019-03-21T05:42:47.432Z,68.27
2019-03-21T05:45:19.904Z,57.20
2019-03-21T05:47:52.160Z,61.37
2019-03-21T05:50:24.432Z,56.13
2019-03-21T05:52:56.724Z,59.73
2019-03-21T05:55:31.328Z,66.70
2019-03-21T05:58:08.552Z,55.50
2019-03-21T06:00:42.025Z,66.47
2019-03-21T06:03:20.718Z,65.00
2019-03-21T06:06:08.657Z,70.60
2019-03-21T06:08:41.117Z,72.93
2019-03-21T06:11:13.385Z,75.13
2019-03-21T06:13:45.648Z,63.80
2019-03-21T06:16:17.928Z,80.30
2019-03-21T06:19:14.739Z,70.80
2019-03-21T06:21:57.235Z,71.77
2019-03-21T06:24:34.645Z,73.93
2019-03-21T06:27:25.704Z,71.17
2019-03-21T06:29:58.060Z,82.40
2019-03-21T06:32:30.444Z,75.20
2019-03-21T06:35:03.301Z,75.20
2019-03-21T06:37:35.593Z,69.27
2019-03-21T06:40:08.023Z,70.13
2019-03-21T06:42:40.288Z,65.67
2019-03-21T06:45:12.633Z,75.17
2019-03-21T06:47:44.896Z,76.67
2019-03-21T06:50:17.151Z,70.50
2019-03-21T06:52:49.440Z,75.10
2019-03-21T06:55:21.794Z,80.97
2019-03-21T06:57:54.084Z,77.63
2019-03-21T07:00:26.425Z,79.53
2019-03-21T07:02:58.712Z,84.63
2019-03-21T07:05:31.009Z,70.23
2019-03-21T07:08:03.368Z,76.50
2019-03-21T07:10:35.753Z,67.13
2019-03-21T07:13:08.012Z,70.57
2019-03-21T07:15:40.332Z,66.17
2019-03-21T07:18:12.732Z,74.63
2019-03-21T07:20:45.012Z,78.50
2019-03-21T07:23:17.392Z,82.67
2019-03-21T07:25:49.869Z,68.53
2019-03-21T07:28:22.195Z,77.40
2019-03-21T07:30:54.436Z,76.10
2019-03-21T07:33:26.701Z,63.10
2019-03-21T07:35:59.058Z,75.87
2019-03-21T07:38:31.444Z,82.80
2019-03-21T07:41:03.826Z,86.13
2019-03-21T07:43:36.177Z,86.13
2019-03-21T07:46:08.435Z,79.97
2019-03-21T07:48:40.688Z,78.23
2019-03-21T07:51:13.036Z,76.87
2019-03-21T07:53:45.340Z,76.33
2019-03-21T07:56:17.595Z,78.37
2019-03-21T07:58:49.947Z,75.70
2019-03-21T08:01:22.245Z,72.37
2019-03-21T08:03:54.603Z,87.37
2019-03-21T08:06:26.848Z,77.80
2019-03-21T08:08:59.238Z,69.50
2019-03-21T08:11:31.606Z,80.00
2019-03-21T08:14:04.120Z,70.30
2019-03-21T08:16:36.524Z,79.27
2019-03-21T08:19:08.825Z,72.40
2019-03-21T08:21:43.056Z,67.53
2019-03-21T08:24:15.346Z,68.07
2019-03-21T08:26:47.618Z,64.37
2019-03-21T08:29:20.002Z,74.33
2019-03-21T08:31:52.258Z,66.17
2019-03-21T08:34:24.569Z,69.23
2019-03-21T08:36:56.969Z,71.47
2019-03-21T08:39:29.241Z,74.63
2019-03-21T08:42:01.528Z,60.97
2019-03-21T08:44:33.827Z,55.07
2019-03-21T08:47:06.170Z,60.73
2019-03-21T08:49:38.453Z,52.43
2019-03-21T08:52:10.725Z,57.83
2019-03-21T08:54:43.038Z,46.23
2019-03-21T08:57:15.309Z,52.97
2019-03-21T08:59:48.108Z,54.77
2019-03-21T09:02:20.603Z,50.13
2019-03-21T09:04:53.125Z,60.07
2019-03-21T09:07:25.488Z,49.33
2019-03-21T09:09:57.785Z,48.30
2019-03-21T09:12:30.121Z,59.70
2019-03-21T09:15:02.562Z,52.33
2019-03-21T09:17:34.900Z,58.00
2019-03-21T09:20:07.975Z,51.67
2019-03-21T09:22:40.257Z,52.20
2019-03-21T09:25:12.771Z,44.00
2019-03-21T09:27:45.128Z,47.47
2019-03-21T09:30:17.540Z,56.40
2019-03-21T09:32:49.833Z,50.13
2019-03-21T09:35:22.215Z,50.80
2019-03-21T09:37:54.485Z,58.20
2019-03-21T09:40:26.847Z,45.57
2019-03-21T09:42:59.145Z,48.83
2019-03-21T09:45:31.456Z,39.70
2019-03-21T09:48:04.027Z,42.93
2019-03-21T09:50:36.304Z,46.33
2019-03-21T09:53:08.540Z,39.37
2019-03-21T09:55:40.791Z,42.67
2019-03-21T09:58:13.161Z,40.93
2019-03-21T10:00:45.432Z,48.87
2019-03-21T10:03:17.786Z,46.63
2019-03-21T10:05:50.196Z,42.87
2019-03-21T10:08:22.559Z,40.83
2019-03-21T10:10:54.874Z,47.77
2019-03-21T10:13:27.131Z,58.80
2019-03-21T10:15:59.531Z,43.63
2019-03-21T10:18:31.975Z,55.27
2019-03-21T10:21:04.236Z,44.13
2019-03-21T10:23:36.515Z,54.90
2019-03-21T10:26:08.907Z,48.47
2019-03-21T10:28:41.249Z,41.87
2019-03-21T10:31:13.746Z,41.77
2019-03-21T10:33:46.097Z,49.77
2019-03-21T10:36:18.357Z,46.60
2019-03-21T10:38:50.619Z,47.93
2019-03-21T10:41:22.885Z,45.57
2019-03-21T10:43:55.225Z,40.50
2019-03-21T10:46:27.502Z,43.13
2019-03-21T10:48:59.862Z,40.40
2019-03-21T10:51:32.172Z,40.13
2019-03-21T10:54:04.477Z,43.83
2019-03-21T10:56:36.747Z,39.50
2019-03-21T10:59:09.013Z,36.83
2019-03-21T11:01:41.389Z,41.70
2019-03-21T11:04:13.743Z,56.00
2019-03-21T11:06:46.131Z,51.00
2019-03-21T11:09:18.573Z,42.10
2019-03-21T11:11:50.916Z,39.90
2019-03-21T11:14:23.171Z,36.10
2019-03-21T11:16:55.540Z,40.03
2019-03-21T11:19:27.791Z,41.27
2019-03-21T11:22:06.224Z,31.00
2019-03-21T11:24:34.457Z,47.20
2019-03-21T11:27:06.745Z,42.27
2019-03-21T11:29:39.021Z,43.30
2019-03-21T11:32:11.417Z,44.33
2019-03-21T11:34:43.672Z,48.03
2019-03-21T11:37:16.036Z,42.73
2019-03-21T11:39:48.313Z,43.80
2019-03-21T11:42:20.787Z,40.67
2019-03-21T11:44:53.132Z,42.23
2019-03-21T11:47:25.424Z,47.17
2019-03-21T11:49:57.791Z,46.10
2019-03-21T11:52:30.192Z,46.17
2019-03-21T11:55:03.329Z,47.07
2019-03-21T11:57:35.636Z,47.03
2019-03-21T12:00:08.432Z,44.50
2019-03-21T12:02:40.779Z,49.63
2019-03-21T12:05:13.311Z,50.50
2019-03-21T12:07:45.688Z,43.80
2019-03-21T12:10:18.059Z,51.83
2019-03-21T12:12:50.379Z,47.77
2019-03-21T12:15:22.720Z,53.40
2019-03-21T12:17:55.213Z,47.40
2019-03-21T12:20:29.420Z,63.83
2019-03-21T12:23:01.893Z,58.97
2019-03-21T12:25:34.273Z,46.20
2019-03-21T12:28:06.563Z,55.53
2019-03-21T12:30:40.397Z,51.40
2019-03-21T12:33:12.673Z,54.33
2019-03-21T12:35:45.080Z,48.53
2019-03-21T12:38:17.443Z,50.27
2019-03-21T12:40:49.716Z,54.20
2019-03-21T12:43:22.052Z,54.47
2019-03-21T12:45:54.446Z,56.20
2019-03-21T12:48:26.986Z,55.23
2019-03-21T12:50:59.324Z,54.77
2019-03-21T12:53:31.732Z,55.10
2019-03-21T12:56:04.089Z,59.63
2019-03-21T12:58:36.364Z,57.07
2019-03-21T13:01:08.617Z,52.07
2019-03-21T13:03:41.132Z,51.40
2019-03-21T13:06:13.389Z,53.57
2019-03-21T13:08:45.671Z,54.63
2019-03-21T13:11:17.977Z,60.03
2019-03-21T13:13:50.369Z,54.87
2019-03-21T13:16:22.709Z,53.63
2019-03-21T13:18:58.065Z,52.40
2019-03-21T13:21:30.433Z,60.90
2019-03-21T13:24:02.824Z,56.83
2019-03-21T13:26:35.203Z,53.93
2019-03-21T13:29:07.592Z,53.63
2019-03-21T13:31:39.853Z,65.17
2019-03-21T13:34:12.139Z,53.87
2019-03-21T13:36:44.444Z,56.90
2019-03-21T13:39:16.751Z,57.47
2019-03-21T13:41:49.008Z,54.93
2019-03-21T13:44:21.289Z,63.37
2019-03-21T13:46:53.513Z,57.53
2019-03-21T13:49:25.793Z,56.37
2019-03-21T13:51:58.041Z,54.97
2019-03-21T13:54:30.336Z,57.73
2019-03-21T13:57:02.817Z,63.67
2019-03-21T13:59:35.165Z,51.27
2019-03-21T14:02:07.465Z,57.53
2019-03-21T14:04:39.744Z,55.67
2019-03-21T14:07:12.048Z,53.77
2019-03-21T14:09:44.363Z,56.03
2019-03-21T14:12:16.720Z,55.17
2019-03-21T14:14:49.118Z,51.83
2019-03-21T14:17:22.355Z,58.37
2019-03-21T14:19:54.776Z,60.57
2019-03-21T14:22:27.024Z,58.53
2019-03-21T14:24:59.309Z,64.77
2019-03-21T14:27:31.672Z,59.07
2019-03-21T14:30:05.147Z,54.37
2019-03-21T14:32:37.465Z,59.60
2019-03-21T14:35:10.067Z,57.53
2019-03-21T14:37:42.609Z,59.90
2019-03-21T14:40:15.685Z,59.10
2019-03-21T14:42:48.312Z,54.60
2019-03-21T14:45:20.719Z,53.90
2019-03-21T14:47:52.970Z,60.50
2019-03-21T14:50:25.229Z,64.40
2019-03-21T14:52:57.492Z,53.37
2019-03-21T14:55:29.873Z,56.80
2019-03-21T14:58:02.489Z,57.47
2019-03-21T15:00:34.780Z,53.37
2019-03-21T15:03:07.045Z,53.43
2019-03-21T15:05:39.400Z,55.13
2019-03-21T15:08:11.771Z,50.73
2019-03-21T15:10:44.033Z,48.73
2019-03-21T15:13:16.317Z,46.07
2019-03-21T15:15:48.686Z,49.03
2019-03-21T15:18:21.080Z,58.63
2019-03-21T15:20:53.458Z,55.33
2019-03-21T15:23:26.030Z,50.37
2019-03-21T15:25:58.679Z,50.60
2019-03-21T15:28:31.208Z,51.13
2019-03-21T15:31:03.691Z,51.87
2019-03-21T15:33:35.920Z,53.03
2019-03-21T15:36:08.223Z,51.40
2019-03-21T15:38:40.457Z,51.43
2019-03-21T15:41:12.720Z,60.03
2019-03-21T15:43:44.991Z,50.20
2019-03-21T15:46:17.279Z,49.97
2019-03-21T15:48:50.348Z,49.20
2019-03-21T15:51:22.627Z,57.87
2019-03-21T15:53:56.644Z,49.43
2019-03-21T15:56:29.056Z,50.87
2019-03-21T15:59:01.321Z,52.07
2019-03-21T16:01:33.612Z,53.20
2019-03-21T16:04:05.976Z,68.97
2019-03-21T16:06:38.334Z,57.63
2019-03-21T16:09:10.697Z,54.17
2019-03-21T16:11:42.996Z,54.40
2019-03-21T16:14:15.284Z,53.70
2019-03-21T16:16:47.689Z,60.13
2019-03-21T16:19:19.964Z,47.63
2019-03-21T16:21:52.249Z,53.77
2019-03-21T16:24:24.510Z,51.93
2019-03-21T16:26:56.917Z,56.90
2019-03-21T16:29:29.265Z,56.03
2019-03-21T16:32:02.543Z,51.67
2019-03-21T16:34:35.161Z,65.47
2019-03-21T16:37:07.472Z,60.40
2019-03-21T16:39:39.780Z,57.43
2019-03-21T16:42:12.041Z,46.40
2019-03-21T16:44:44.397Z,57.60
2019-03-21T16:47:16.674Z,50.10
2019-03-21T16:49:48.932Z,59.30
2019-03-21T16:52:21.455Z,49.13
2019-03-21T16:54:53.716Z,58.10
2019-03-21T16:57:26.037Z,75.03
2019-03-21T16:59:58.400Z,65.30
2019-03-21T17:02:30.741Z,56.63
2019-03-21T17:05:03.591Z,69.57
2019-03-21T17:07:35.976Z,60.93
2019-03-21T17:10:09.096Z,65.03
2019-03-21T17:12:41.408Z,54.37
2019-03-21T17:15:13.939Z,54.83
2019-03-21T17:17:46.301Z,53.80
2019-03-21T17:20:18.560Z,49.47
2019-03-21T17:22:51.010Z,51.67
2019-03-21T17:25:23.319Z,55.37
2019-03-21T17:27:55.601Z,63.43
2019-03-21T17:31:26.763Z,71.00
2019-03-21T17:33:59.140Z,63.50
2019-03-21T17:36:31.393Z,68.63
2019-03-21T17:39:06.628Z,67.83
2019-03-21T17:41:38.907Z,69.00
2019-03-21T17:44:11.273Z,66.03
2019-03-21T17:46:43.552Z,62.70
2019-03-21T17:49:15.911Z,76.23
2019-03-21T17:51:48.202Z,77.17
2019-03-21T17:54:20.493Z,87.60
2019-03-21T17:56:52.760Z,87.30
2019-03-21T17:59:25.034Z,78.57
2019-03-21T18:01:57.397Z,74.67
2019-03-21T18:04:30.390Z,77.87
2019-03-21T18:07:02.833Z,67.87
2019-03-21T18:09:35.121Z,76.90
2019-03-21T18:12:07.470Z,77.27
2019-03-21T18:14:39.768Z,69.47
2019-03-21T18:17:12.113Z,76.33
2019-03-21T18:19:44.383Z,72.30
2019-03-21T18:22:16.713Z,73.67
2019-03-21T18:24:53.715Z,76.43
2019-03-21T18:27:23.248Z,72.43
2019-03-21T18:29:55.523Z,71.03
2019-03-21T18:32:27.805Z,75.97
2019-03-21T18:35:00.168Z,75.97
2019-03-21T18:37:32.733Z,83.30
2019-03-21T18:40:05.446Z,73.23
2019-03-21T18:42:37.738Z,73.00
2019-03-21T18:45:10.464Z,67.57
2019-03-21T18:47:42.908Z,82.00
2019-03-21T18:50:15.500Z,85.60
2019-03-21T18:52:47.872Z,86.77
2019-03-21T18:55:20.126Z,87.50
2019-03-21T18:57:52.467Z,95.77
2019-03-21T19:00:24.846Z,92.33
2019-03-21T19:02:57.180Z,92.67
2019-03-21T19:05:29.462Z,91.17
2019-03-21T19:08:01.832Z,100.17
2019-03-21T19:10:34.584Z,99.83
2019-03-21T19:13:06.948Z,97.80
2019-03-21T19:15:39.220Z,103.43
2019-03-21T19:18:11.470Z,126.27
2019-03-21T19:20:43.753Z,97.27
2019-03-21T19:23:16.073Z,111.87
2019-03-21T19:25:48.448Z,119.07
2019-03-21T19:28:20.925Z,128.63
2019-03-21T19:30:53.227Z,108.77
2019-03-21T19:33:25.542Z,117.40
2019-03-21T19:35:57.973Z,122.90
2019-03-21T19:38:30.490Z,135.13
2019-03-21T19:41:02.910Z,119.50
2019-03-21T19:43:35.177Z,116.47
2019-03-21T19:46:07.550Z,119.80
2019-03-21T19:48:49.730Z,119.37
2019-03-21T19:51:14.050Z,140.63
2019-03-21T19:53:46.420Z,137.37
2019-03-21T19:56:18.717Z,128.87
2019-03-21T19:58:50.997Z,150.80
2019-03-21T20:01:23.405Z,151.00
2019-03-21T20:03:55.796Z,165.83
2019-03-21T20:06:28.169Z,173.83
2019-03-21T20:09:00.467Z,188.33
2019-03-21T20:11:32.835Z,176.67
2019-03-21T20:14:05.184Z,176.20
2019-03-21T20:16:37.600Z,150.47
2019-03-21T20:19:10.033Z,169.90
2019-03-21T20:21:47.798Z,181.80
2019-03-21T20:24:16.921Z,177.57
2019-03-21T20:26:49.300Z,179.27
2019-03-21T20:29:21.633Z,184.33
2019-03-21T20:31:54.152Z,195.73
2019-03-21T20:34:26.431Z,194.90
2019-03-21T20:36:58.827Z,215.33
2019-03-21T20:39:31.097Z,193.57
2019-03-21T20:42:03.403Z,234.73
2019-03-21T20:44:35.788Z,205.53
2019-03-21T20:47:08.238Z,215.07
2019-03-21T20:49:40.582Z,222.07
2019-03-21T20:52:12.849Z,215.20
2019-03-21T20:54:45.102Z,245.33
2019-03-21T20:57:17.457Z,233.77
2019-03-21T20:59:49.708Z,224.93
2019-03-21T21:02:21.957Z,213.50
2019-03-21T21:04:54.203Z,240.20
2019-03-21T21:07:26.555Z,238.00
2019-03-21T21:09:59.129Z,243.60
2019-03-21T21:12:31.440Z,252.67
2019-03-21T21:15:04.875Z,259.60
2019-03-21T21:17:37.132Z,253.27
2019-03-21T21:20:09.804Z,238.40
2019-03-21T21:22:42.208Z,243.83
2019-03-21T21:25:14.665Z,229.47
2019-03-21T21:27:49.661Z,224.50
2019-03-21T21:30:21.554Z,247.10
2019-03-21T21:32:53.833Z,252.57
2019-03-21T21:35:26.184Z,238.63
2019-03-21T21:37:58.444Z,248.53
2019-03-21T21:40:33.286Z,212.47
2019-03-21T21:43:05.677Z,233.67
2019-03-21T21:45:38.028Z,248.63
2019-03-21T21:48:10.288Z,239.70
2019-03-21T21:50:42.551Z,247.53
2019-03-21T21:53:14.824Z,257.83
2019-03-21T21:55:47.279Z,250.90
2019-03-21T21:58:19.653Z,218.53
2019-03-21T22:00:52.011Z,272.90
2019-03-21T22:03:24.285Z,241.67
2019-03-21T22:05:56.536Z,247.33
2019-03-21T22:08:28.785Z,222.97
2019-03-21T22:11:01.016Z,248.27
2019-03-21T22:13:33.294Z,244.67
2019-03-21T22:16:05.556Z,257.57
2019-03-21T22:18:37.877Z,246.57
2019-03-21T22:21:10.272Z,269.03
2019-03-21T22:23:42.672Z,264.00
2019-03-21T22:26:14.919Z,264.83
2019-03-21T22:28:47.220Z,272.13
2019-03-21T22:31:19.486Z,265.70
2019-03-21T22:33:51.755Z,253.63
2019-03-21T22:36:24.004Z,237.80
2019-03-21T22:38:56.261Z,222.80
2019-03-21T22:41:28.617Z,283.57
2019-03-21T22:44:00.862Z,268.77
2019-03-21T22:46:33.135Z,310.30
2019-03-21T22:49:05.639Z,287.73
2019-03-21T22:51:37.879Z,315.17
2019-03-21T22:54:10.157Z,295.73
2019-03-21T22:56:42.396Z,316.97
2019-03-21T22:59:14.642Z,320.20
2019-03-21T23:01:46.926Z,294.27
2019-03-21T23:04:19.181Z,298.43
2019-03-21T23:06:51.423Z,306.47
2019-03-21T23:09:23.681Z,308.03
2019-03-21T23:11:55.934Z,308.83
2019-03-21T23:14:28.241Z,305.80
2019-03-21T23:17:00.630Z,289.73
2019-03-21T23:19:32.916Z,317.20
2019-03-21T23:22:05.152Z,295.53
2019-03-21T23:24:37.424Z,295.87
2019-03-21T23:27:09.759Z,291.17
2019-03-21T23:29:42.117Z,298.80
2019-03-21T23:32:14.377Z,324.53
2019-03-21T23:34:46.632Z,297.37
2019-03-21T23:37:18.927Z,288.00
2019-03-21T23:39:51.311Z,325.20
2019-03-21T23:42:23.546Z,325.60
2019-03-21T23:44:55.790Z,351.27
2019-03-21T23:47:28.029Z,326.83
2019-03-21T23:50:00.351Z,309.00
2019-03-21T23:52:32.623Z,323.87
2019-03-21T23:55:05.432Z,312.13
2019-03-21T23:57:37.798Z,298.97
